sensor_id;sensor_type;location;lat;lon;timestamp;P1;P2;P0
69222;PMS7003;56514;51.816;-0.026;2023-04-03T00:00:33;0.00;0.00;0.00
69222;PMS7003;56514;51.816;-0.026;2023-04-03T00:03:43;0.00;0.00;0.00
69222;PMS7003;56514;51.816;-0.026;2023-04-03T00:06:52;0.00;0.00;0.00
69222;PMS7003;56514;51.816;-0.026;2023-04-03T00:10:01;0.00;0.00;0.00
69222;PMS7003;56514;51.816;-0.026;2023-04-03T00:13:11;0.00;0.00;0.00
69222;PMS7003;56514;51.816;-0.026;2023-04-03T00:16:21;0.00;0.00;0.00
69222;PMS7003;56514;51.816;-0.026;2023-04-03T00:19:30;0.00;0.00;0.00
69222;PMS7003;56514;51.816;-0.026;2023-04-03T00:22:39;0.00;0.00;0.00
69222;PMS7003;56514;51.816;-0.026;2023-04-03T00:25:48;0.00;0.00;0.00
69222;PMS7003;56514;51.816;-0.026;2023-04-03T00:28:35;0.00;0.00;0.00
69222;PMS7003;56514;51.816;-0.026;2023-04-03T00:31:19;0.00;0.00;0.00
69222;PMS7003;56514;51.816;-0.026;2023-04-03T00:34:05;0.00;0.00;0.00
69222;PMS7003;56514;51.816;-0.026;2023-04-03T00:36:50;0.00;0.00;0.00
69222;PMS7003;56514;51.816;-0.026;2023-04-03T00:39:36;0.00;0.00;0.00
69222;PMS7003;56514;51.816;-0.026;2023-04-03T00:42:21;0.00;0.00;0.00
69222;PMS7003;56514;51.816;-0.026;2023-04-03T00:47:51;0.00;0.00;0.00
69222;PMS7003;56514;51.816;-0.026;2023-04-03T00:50:37;0.00;0.00;0.00
69222;PMS7003;56514;51.816;-0.026;2023-04-03T00:53:26;0.00;0.00;0.00
69222;PMS7003;56514;51.816;-0.026;2023-04-03T00:56:19;0.00;0.00;0.00
69222;PMS7003;56514;51.816;-0.026;2023-04-03T00:59:15;1.00;1.00;0.33
69222;PMS7003;56514;51.816;-0.026;2023-04-03T01:02:06;0.00;0.00;0.00
69222;PMS7003;56514;51.816;-0.026;2023-04-03T01:04:51;3.00;1.00;0.00
69222;PMS7003;56514;51.816;-0.026;2023-04-03T01:07:36;0.67;0.67;0.00
69222;PMS7003;56514;51.816;-0.026;2023-04-03T01:10:21;0.00;0.00;0.00
69222;PMS7003;56514;51.816;-0.026;2023-04-03T01:13:23;0.00;0.00;0.00
69222;PMS7003;56514;51.816;-0.026;2023-04-03T01:16:09;0.00;0.00;0.00
69222;PMS7003;56514;51.816;-0.026;2023-04-03T01:18:55;0.00;0.00;0.00
69222;PMS7003;56514;51.816;-0.026;2023-04-03T01:21:50;1.00;1.00;0.00
69222;PMS7003;56514;51.816;-0.026;2023-04-03T01:24:39;0.00;0.00;0.00
69222;PMS7003;56514;51.816;-0.026;2023-04-03T01:27:24;0.00;0.00;0.00
69222;PMS7003;56514;51.816;-0.026;2023-04-03T01:30:09;0.00;0.00;0.00
69222;PMS7003;56514;51.816;-0.026;2023-04-03T01:32:55;0.00;0.00;0.00
69222;PMS7003;56514;51.816;-0.026;2023-04-03T01:35:41;0.00;0.00;0.00
69222;PMS7003;56514;51.816;-0.026;2023-04-03T01:38:26;0.00;0.00;0.00
69222;PMS7003;56514;51.816;-0.026;2023-04-03T01:41:11;0.00;0.00;0.00
69222;PMS7003;56514;51.816;-0.026;2023-04-03T01:43:56;0.00;0.00;0.00
69222;PMS7003;56514;51.816;-0.026;2023-04-03T01:46:41;0.00;0.00;0.00
69222;PMS7003;56514;51.816;-0.026;2023-04-03T01:49:26;0.00;0.00;0.00
69222;PMS7003;56514;51.816;-0.026;2023-04-03T01:52:11;0.00;0.00;0.00
69222;PMS7003;56514;51.816;-0.026;2023-04-03T01:54:57;0.00;0.00;0.00
69222;PMS7003;56514;51.816;-0.026;2023-04-03T01:57:42;0.00;0.00;0.00
69222;PMS7003;56514;51.816;-0.026;2023-04-03T02:00:26;0.00;0.00;0.00
69222;PMS7003;56514;51.816;-0.026;2023-04-03T02:03:11;0.00;0.00;0.00
69222;PMS7003;56514;51.816;-0.026;2023-04-03T02:05:56;0.00;0.00;0.00
69222;PMS7003;56514;51.816;-0.026;2023-04-03T02:08:40;0.00;0.00;0.00
69222;PMS7003;56514;51.816;-0.026;2023-04-03T02:11:26;0.00;0.00;0.00
69222;PMS7003;56514;51.816;-0.026;2023-04-03T02:14:11;0.33;0.33;0.33
69222;PMS7003;56514;51.816;-0.026;2023-04-03T02:16:55;0.00;0.00;0.00
69222;PMS7003;56514;51.816;-0.026;2023-04-03T02:19:40;1.00;1.00;0.00
69222;PMS7003;56514;51.816;-0.026;2023-04-03T02:22:25;0.00;0.00;0.00
69222;PMS7003;56514;51.816;-0.026;2023-04-03T02:25:11;0.00;0.00;0.00
69222;PMS7003;56514;51.816;-0.026;2023-04-03T02:27:56;0.00;0.00;0.00
69222;PMS7003;56514;51.816;-0.026;2023-04-03T02:30:42;0.00;0.00;0.00
69222;PMS7003;56514;51.816;-0.026;2023-04-03T02:33:26;0.00;0.00;0.00
69222;PMS7003;56514;51.816;-0.026;2023-04-03T02:36:11;0.00;0.00;0.00
69222;PMS7003;56514;51.816;-0.026;2023-04-03T02:38:56;0.00;0.00;0.00
69222;PMS7003;56514;51.816;-0.026;2023-04-03T02:41:41;0.00;0.00;0.00
69222;PMS7003;56514;51.816;-0.026;2023-04-03T02:44:26;0.00;0.00;0.00
69222;PMS7003;56514;51.816;-0.026;2023-04-03T02:47:10;0.00;0.00;0.00
69222;PMS7003;56514;51.816;-0.026;2023-04-03T02:49:55;0.00;0.00;0.00
69222;PMS7003;56514;51.816;-0.026;2023-04-03T02:52:40;0.00;0.00;0.00
69222;PMS7003;56514;51.816;-0.026;2023-04-03T02:55:25;0.00;0.00;0.00
69222;PMS7003;56514;51.816;-0.026;2023-04-03T02:58:10;0.33;0.33;0.00
69222;PMS7003;56514;51.816;-0.026;2023-04-03T03:00:55;0.00;0.00;0.00
69222;PMS7003;56514;51.816;-0.026;2023-04-03T03:03:40;0.00;0.00;0.00
69222;PMS7003;56514;51.816;-0.026;2023-04-03T03:06:25;0.00;0.00;0.00
69222;PMS7003;56514;51.816;-0.026;2023-04-03T03:09:10;0.00;0.00;0.00
69222;PMS7003;56514;51.816;-0.026;2023-04-03T03:11:55;0.00;0.00;0.00
69222;PMS7003;56514;51.816;-0.026;2023-04-03T03:14:41;0.00;0.00;0.00
69222;PMS7003;56514;51.816;-0.026;2023-04-03T03:17:27;0.00;0.00;0.00
69222;PMS7003;56514;51.816;-0.026;2023-04-03T03:20:12;0.00;0.00;0.00
69222;PMS7003;56514;51.816;-0.026;2023-04-03T03:23:02;0.00;0.00;0.00
69222;PMS7003;56514;51.816;-0.026;2023-04-03T03:25:47;0.33;0.33;0.00
69222;PMS7003;56514;51.816;-0.026;2023-04-03T03:28:32;0.00;0.00;0.00
69222;PMS7003;56514;51.816;-0.026;2023-04-03T03:31:17;0.00;0.00;0.00
69222;PMS7003;56514;51.816;-0.026;2023-04-03T03:34:02;0.00;0.00;0.00
69222;PMS7003;56514;51.816;-0.026;2023-04-03T03:36:47;0.00;0.00;0.00
69222;PMS7003;56514;51.816;-0.026;2023-04-03T03:39:32;0.00;0.00;0.00
69222;PMS7003;56514;51.816;-0.026;2023-04-03T03:42:17;0.00;0.00;0.00
69222;PMS7003;56514;51.816;-0.026;2023-04-03T03:45:02;1.00;1.00;1.00
69222;PMS7003;56514;51.816;-0.026;2023-04-03T03:47:47;0.00;0.00;0.00
69222;PMS7003;56514;51.816;-0.026;2023-04-03T03:50:32;0.00;0.00;0.00
69222;PMS7003;56514;51.816;-0.026;2023-04-03T03:53:17;1.00;1.00;0.00
69222;PMS7003;56514;51.816;-0.026;2023-04-03T03:56:02;0.67;0.67;0.00
69222;PMS7003;56514;51.816;-0.026;2023-04-03T03:58:47;0.00;0.00;0.00
69222;PMS7003;56514;51.816;-0.026;2023-04-03T04:01:33;0.00;0.00;0.00
69222;PMS7003;56514;51.816;-0.026;2023-04-03T04:04:18;0.00;0.00;0.00
69222;PMS7003;56514;51.816;-0.026;2023-04-03T04:07:03;0.00;0.00;0.00
69222;PMS7003;56514;51.816;-0.026;2023-04-03T04:09:48;0.00;0.00;0.00
69222;PMS7003;56514;51.816;-0.026;2023-04-03T04:12:33;0.33;0.33;0.00
69222;PMS7003;56514;51.816;-0.026;2023-04-03T04:15:20;0.00;0.00;0.00
69222;PMS7003;56514;51.816;-0.026;2023-04-03T04:18:06;0.00;0.00;0.00
69222;PMS7003;56514;51.816;-0.026;2023-04-03T04:20:51;0.00;0.00;0.00
69222;PMS7003;56514;51.816;-0.026;2023-04-03T04:23:36;0.00;0.00;0.00
69222;PMS7003;56514;51.816;-0.026;2023-04-03T04:26:21;0.00;0.00;0.00
69222;PMS7003;56514;51.816;-0.026;2023-04-03T04:29:06;0.00;0.00;0.00
69222;PMS7003;56514;51.816;-0.026;2023-04-03T04:31:50;1.00;1.00;0.00
69222;PMS7003;56514;51.816;-0.026;2023-04-03T04:34:35;0.00;0.00;0.00
69222;PMS7003;56514;51.816;-0.026;2023-04-03T04:37:20;0.00;0.00;0.00
69222;PMS7003;56514;51.816;-0.026;2023-04-03T04:40:05;0.00;0.00;0.00
69222;PMS7003;56514;51.816;-0.026;2023-04-03T04:42:50;0.00;0.00;0.00
69222;PMS7003;56514;51.816;-0.026;2023-04-03T04:45:36;0.00;0.00;0.00
69222;PMS7003;56514;51.816;-0.026;2023-04-03T04:48:20;0.00;0.00;0.00
69222;PMS7003;56514;51.816;-0.026;2023-04-03T04:51:05;0.00;0.00;0.00
69222;PMS7003;56514;51.816;-0.026;2023-04-03T04:53:50;0.00;0.00;0.00
69222;PMS7003;56514;51.816;-0.026;2023-04-03T04:56:35;0.00;0.00;0.00
69222;PMS7003;56514;51.816;-0.026;2023-04-03T04:59:20;0.00;0.00;0.00
69222;PMS7003;56514;51.816;-0.026;2023-04-03T05:02:05;0.00;0.00;0.00
69222;PMS7003;56514;51.816;-0.026;2023-04-03T05:04:50;0.00;0.00;0.00
69222;PMS7003;56514;51.816;-0.026;2023-04-03T05:07:36;0.00;0.00;0.00
69222;PMS7003;56514;51.816;-0.026;2023-04-03T05:10:21;0.00;0.00;0.00
69222;PMS7003;56514;51.816;-0.026;2023-04-03T05:13:06;0.67;0.67;0.00
69222;PMS7003;56514;51.816;-0.026;2023-04-03T05:15:51;0.00;0.00;0.00
69222;PMS7003;56514;51.816;-0.026;2023-04-03T05:18:36;0.00;0.00;0.00
69222;PMS7003;56514;51.816;-0.026;2023-04-03T05:21:20;0.00;0.00;0.00
69222;PMS7003;56514;51.816;-0.026;2023-04-03T05:24:07;0.50;0.00;0.00
69222;PMS7003;56514;51.816;-0.026;2023-04-03T05:26:53;0.00;0.00;0.00
69222;PMS7003;56514;51.816;-0.026;2023-04-03T05:29:38;0.00;0.00;0.00
69222;PMS7003;56514;51.816;-0.026;2023-04-03T05:32:24;0.00;0.00;0.00
69222;PMS7003;56514;51.816;-0.026;2023-04-03T05:35:11;0.00;0.00;0.00
69222;PMS7003;56514;51.816;-0.026;2023-04-03T05:37:56;0.00;0.00;0.00
69222;PMS7003;56514;51.816;-0.026;2023-04-03T05:40:41;0.00;0.00;0.00
69222;PMS7003;56514;51.816;-0.026;2023-04-03T05:43:26;0.00;0.00;0.00
69222;PMS7003;56514;51.816;-0.026;2023-04-03T05:46:11;0.00;0.00;0.00
69222;PMS7003;56514;51.816;-0.026;2023-04-03T05:48:57;0.00;0.00;0.00
69222;PMS7003;56514;51.816;-0.026;2023-04-03T05:51:42;0.00;0.00;0.00
69222;PMS7003;56514;51.816;-0.026;2023-04-03T05:54:29;1.00;1.00;0.33
69222;PMS7003;56514;51.816;-0.026;2023-04-03T05:57:15;0.00;0.00;0.00
69222;PMS7003;56514;51.816;-0.026;2023-04-03T06:00:02;0.00;0.00;0.00
69222;PMS7003;56514;51.816;-0.026;2023-04-03T06:02:50;0.00;0.00;0.00
69222;PMS7003;56514;51.816;-0.026;2023-04-03T06:05:35;0.50;0.50;0.25
69222;PMS7003;56514;51.816;-0.026;2023-04-03T06:08:20;0.00;0.00;0.00
69222;PMS7003;56514;51.816;-0.026;2023-04-03T06:11:05;0.50;0.50;0.00
69222;PMS7003;56514;51.816;-0.026;2023-04-03T06:13:50;0.00;0.00;0.00
69222;PMS7003;56514;51.816;-0.026;2023-04-03T06:16:35;1.00;1.00;0.00
69222;PMS7003;56514;51.816;-0.026;2023-04-03T06:19:20;0.00;0.00;0.00
69222;PMS7003;56514;51.816;-0.026;2023-04-03T06:22:06;0.00;0.00;0.00
69222;PMS7003;56514;51.816;-0.026;2023-04-03T06:24:51;0.00;0.00;0.00
69222;PMS7003;56514;51.816;-0.026;2023-04-03T06:27:36;0.00;0.00;0.00
69222;PMS7003;56514;51.816;-0.026;2023-04-03T06:30:21;0.00;0.00;0.00
69222;PMS7003;56514;51.816;-0.026;2023-04-03T06:33:06;0.00;0.00;0.00
69222;PMS7003;56514;51.816;-0.026;2023-04-03T06:35:55;0.00;0.00;0.00
69222;PMS7003;56514;51.816;-0.026;2023-04-03T06:38:41;0.50;0.50;0.00
69222;PMS7003;56514;51.816;-0.026;2023-04-03T06:41:26;0.00;0.00;0.00
69222;PMS7003;56514;51.816;-0.026;2023-04-03T06:44:11;0.00;0.00;0.00
69222;PMS7003;56514;51.816;-0.026;2023-04-03T06:46:59;0.00;0.00;0.00
69222;PMS7003;56514;51.816;-0.026;2023-04-03T06:49:45;0.00;0.00;0.00
69222;PMS7003;56514;51.816;-0.026;2023-04-03T06:52:30;0.25;0.25;0.00
69222;PMS7003;56514;51.816;-0.026;2023-04-03T06:55:15;1.00;1.00;0.00
69222;PMS7003;56514;51.816;-0.026;2023-04-03T06:58:04;0.00;0.00;0.00
69222;PMS7003;56514;51.816;-0.026;2023-04-03T07:00:49;1.00;1.00;0.00
69222;PMS7003;56514;51.816;-0.026;2023-04-03T07:03:33;0.00;0.00;0.00
69222;PMS7003;56514;51.816;-0.026;2023-04-03T07:06:19;0.00;0.00;0.00
69222;PMS7003;56514;51.816;-0.026;2023-04-03T07:09:04;0.25;0.25;0.00
69222;PMS7003;56514;51.816;-0.026;2023-04-03T07:11:49;0.00;0.00;0.00
69222;PMS7003;56514;51.816;-0.026;2023-04-03T07:14:37;0.00;0.00;0.00
69222;PMS7003;56514;51.816;-0.026;2023-04-03T07:17:22;0.00;0.00;0.00
69222;PMS7003;56514;51.816;-0.026;2023-04-03T07:20:07;0.00;0.00;0.00
69222;PMS7003;56514;51.816;-0.026;2023-04-03T07:22:53;0.00;0.00;0.00
69222;PMS7003;56514;51.816;-0.026;2023-04-03T07:25:47;0.00;0.00;0.00
69222;PMS7003;56514;51.816;-0.026;2023-04-03T07:28:34;0.00;0.00;0.00
69222;PMS7003;56514;51.816;-0.026;2023-04-03T07:31:22;0.00;0.00;0.00
69222;PMS7003;56514;51.816;-0.026;2023-04-03T07:34:07;0.00;0.00;0.00
69222;PMS7003;56514;51.816;-0.026;2023-04-03T07:36:52;0.00;0.00;0.00
69222;PMS7003;56514;51.816;-0.026;2023-04-03T07:39:37;0.00;0.00;0.00
69222;PMS7003;56514;51.816;-0.026;2023-04-03T07:42:22;0.00;0.00;0.00
69222;PMS7003;56514;51.816;-0.026;2023-04-03T07:45:07;0.25;0.25;0.00
69222;PMS7003;56514;51.816;-0.026;2023-04-03T07:47:52;0.00;0.00;0.00
69222;PMS7003;56514;51.816;-0.026;2023-04-03T07:50:39;0.25;0.25;0.00
69222;PMS7003;56514;51.816;-0.026;2023-04-03T07:53:25;0.00;0.00;0.00
69222;PMS7003;56514;51.816;-0.026;2023-04-03T07:56:10;0.00;0.00;0.00
69222;PMS7003;56514;51.816;-0.026;2023-04-03T07:58:55;0.00;0.00;0.00
69222;PMS7003;56514;51.816;-0.026;2023-04-03T08:01:40;0.00;0.00;0.00
69222;PMS7003;56514;51.816;-0.026;2023-04-03T08:04:25;0.00;0.00;0.00
69222;PMS7003;56514;51.816;-0.026;2023-04-03T08:07:10;0.00;0.00;0.00
69222;PMS7003;56514;51.816;-0.026;2023-04-03T08:09:55;0.00;0.00;0.00
69222;PMS7003;56514;51.816;-0.026;2023-04-03T08:12:40;0.00;0.00;0.00
69222;PMS7003;56514;51.816;-0.026;2023-04-03T08:15:26;1.00;1.00;0.25
69222;PMS7003;56514;51.816;-0.026;2023-04-03T08:18:11;0.00;0.00;0.00
69222;PMS7003;56514;51.816;-0.026;2023-04-03T08:20:57;0.00;0.00;0.00
69222;PMS7003;56514;51.816;-0.026;2023-04-03T08:23:47;0.00;0.00;0.00
69222;PMS7003;56514;51.816;-0.026;2023-04-03T08:26:35;0.75;0.00;0.00
69222;PMS7003;56514;51.816;-0.026;2023-04-03T08:29:20;0.25;0.25;0.00
69222;PMS7003;56514;51.816;-0.026;2023-04-03T08:32:05;1.00;1.00;0.00
69222;PMS7003;56514;51.816;-0.026;2023-04-03T08:34:51;0.00;0.00;0.00
69222;PMS7003;56514;51.816;-0.026;2023-04-03T08:37:36;0.00;0.00;0.00
69222;PMS7003;56514;51.816;-0.026;2023-04-03T08:40:23;1.00;1.00;1.00
69222;PMS7003;56514;51.816;-0.026;2023-04-03T08:43:27;0.00;0.00;0.00
69222;PMS7003;56514;51.816;-0.026;2023-04-03T08:46:21;1.00;1.00;0.00
69222;PMS7003;56514;51.816;-0.026;2023-04-03T08:49:20;0.00;0.00;0.00
69222;PMS7003;56514;51.816;-0.026;2023-04-03T08:52:11;0.00;0.00;0.00
69222;PMS7003;56514;51.816;-0.026;2023-04-03T08:55:00;0.75;0.75;0.00
69222;PMS7003;56514;51.816;-0.026;2023-04-03T08:57:47;1.25;1.25;1.00
69222;PMS7003;56514;51.816;-0.026;2023-04-03T09:04:18;0.25;0.25;0.00
69222;PMS7003;56514;51.816;-0.026;2023-04-03T09:07:07;1.00;1.00;0.25
69222;PMS7003;56514;51.816;-0.026;2023-04-03T09:09:59;0.50;0.50;0.00
69222;PMS7003;56514;51.816;-0.026;2023-04-03T09:12:53;1.00;1.00;1.00
69222;PMS7003;56514;51.816;-0.026;2023-04-03T09:15:46;0.00;0.00;0.00
69222;PMS7003;56514;51.816;-0.026;2023-04-03T09:18:33;1.25;1.25;1.00
69222;PMS7003;56514;51.816;-0.026;2023-04-03T09:21:34;1.75;1.75;1.50
69222;PMS7003;56514;51.816;-0.026;2023-04-03T09:24:22;1.00;1.00;1.00
69222;PMS7003;56514;51.816;-0.026;2023-04-03T09:27:10;1.00;1.00;0.00
69222;PMS7003;56514;51.816;-0.026;2023-04-03T09:29:56;1.00;1.00;1.00
69222;PMS7003;56514;51.816;-0.026;2023-04-03T09:32:44;0.00;0.00;0.00
69222;PMS7003;56514;51.816;-0.026;2023-04-03T09:35:31;1.00;1.00;1.00
69222;PMS7003;56514;51.816;-0.026;2023-04-03T09:38:19;1.25;1.25;1.00
69222;PMS7003;56514;51.816;-0.026;2023-04-03T09:41:15;1.00;1.00;1.00
69222;PMS7003;56514;51.816;-0.026;2023-04-03T09:44:04;0.75;0.75;0.25
69222;PMS7003;56514;51.816;-0.026;2023-04-03T09:47:22;2.00;2.00;1.75
69222;PMS7003;56514;51.816;-0.026;2023-04-03T09:52:58;4.00;3.50;2.00
69222;PMS7003;56514;51.816;-0.026;2023-04-03T09:55:43;3.50;3.50;3.50
69222;PMS7003;56514;51.816;-0.026;2023-04-03T09:58:37;4.00;4.00;2.50
69222;PMS7003;56514;51.816;-0.026;2023-04-03T10:01:29;2.00;2.00;2.00
69222;PMS7003;56514;51.816;-0.026;2023-04-03T10:04:17;1.25;1.25;1.00
69222;PMS7003;56514;51.816;-0.026;2023-04-03T10:07:03;1.00;1.00;1.00
69222;PMS7003;56514;51.816;-0.026;2023-04-03T10:10:21;2.00;2.00;1.25
69222;PMS7003;56514;51.816;-0.026;2023-04-03T10:13:11;2.00;2.00;1.50
69222;PMS7003;56514;51.816;-0.026;2023-04-03T10:16:41;2.50;2.50;1.25
69222;PMS7003;56514;51.816;-0.026;2023-04-03T10:25:35;3.50;3.50;2.00
69222;PMS7003;56514;51.816;-0.026;2023-04-03T10:32:16;2.00;2.00;1.00
69222;PMS7003;56514;51.816;-0.026;2023-04-03T10:38:19;1.00;1.00;1.00
69222;PMS7003;56514;51.816;-0.026;2023-04-03T10:50:31;2.67;2.67;2.00
69222;PMS7003;56514;51.816;-0.026;2023-04-03T10:53:37;1.00;1.00;1.00
69222;PMS7003;56514;51.816;-0.026;2023-04-03T10:56:30;1.00;1.00;1.00
69222;PMS7003;56514;51.816;-0.026;2023-04-03T11:27:16;2.00;2.00;1.75
69222;PMS7003;56514;51.816;-0.026;2023-04-03T11:34:24;2.00;2.00;2.00
69222;PMS7003;56514;51.816;-0.026;2023-04-03T11:40:34;2.00;2.00;2.00
69222;PMS7003;56514;51.816;-0.026;2023-04-03T11:43:25;1.75;1.75;1.25
69222;PMS7003;56514;51.816;-0.026;2023-04-03T11:46:15;1.50;1.50;1.50
69222;PMS7003;56514;51.816;-0.026;2023-04-03T11:49:03;1.00;1.00;1.00
69222;PMS7003;56514;51.816;-0.026;2023-04-03T11:51:48;2.00;2.00;2.00
69222;PMS7003;56514;51.816;-0.026;2023-04-03T11:54:35;1.00;1.00;1.00
69222;PMS7003;56514;51.816;-0.026;2023-04-03T12:03:56;1.00;1.00;1.00
69222;PMS7003;56514;51.816;-0.026;2023-04-03T12:12:35;2.75;2.75;2.50
69222;PMS7003;56514;51.816;-0.026;2023-04-03T12:18:40;1.25;1.25;1.00
69222;PMS7003;56514;51.816;-0.026;2023-04-03T12:27:22;2.00;2.00;2.00
69222;PMS7003;56514;51.816;-0.026;2023-04-03T12:30:15;1.50;1.50;1.25
69222;PMS7003;56514;51.816;-0.026;2023-04-03T12:36:14;1.75;1.75;1.75
69222;PMS7003;56514;51.816;-0.026;2023-04-03T12:39:09;1.50;1.50;1.00
69222;PMS7003;56514;51.816;-0.026;2023-04-03T12:45:44;1.00;1.00;1.00
69222;PMS7003;56514;51.816;-0.026;2023-04-03T12:51:34;1.00;1.00;1.00
69222;PMS7003;56514;51.816;-0.026;2023-04-03T12:57:25;1.00;1.00;1.00
69222;PMS7003;56514;51.816;-0.026;2023-04-03T13:00:22;1.00;1.00;1.00
69222;PMS7003;56514;51.816;-0.026;2023-04-03T13:03:19;1.00;1.00;1.00
69222;PMS7003;56514;51.816;-0.026;2023-04-03T13:06:14;0.25;0.25;0.25
69222;PMS7003;56514;51.816;-0.026;2023-04-03T13:09:19;1.00;1.00;1.00
69222;PMS7003;56514;51.816;-0.026;2023-04-03T13:12:13;1.00;1.00;1.00
69222;PMS7003;56514;51.816;-0.026;2023-04-03T13:15:16;1.50;1.50;1.50
69222;PMS7003;56514;51.816;-0.026;2023-04-03T13:18:21;0.50;0.50;0.00
69222;PMS7003;56514;51.816;-0.026;2023-04-03T13:21:14;0.00;0.00;0.00
69222;PMS7003;56514;51.816;-0.026;2023-04-03T13:24:03;1.00;1.00;1.00
69222;PMS7003;56514;51.816;-0.026;2023-04-03T13:26:48;0.00;0.00;0.00
69222;PMS7003;56514;51.816;-0.026;2023-04-03T13:29:36;1.00;1.00;1.00
69222;PMS7003;56514;51.816;-0.026;2023-04-03T13:32:22;1.00;1.00;0.75
69222;PMS7003;56514;51.816;-0.026;2023-04-03T13:41:05;0.40;0.40;0.20
69222;PMS7003;56514;51.816;-0.026;2023-04-03T13:44:14;1.50;1.50;1.00
69222;PMS7003;56514;51.816;-0.026;2023-04-03T13:47:20;1.00;1.00;1.00
69222;PMS7003;56514;51.816;-0.026;2023-04-03T13:50:20;1.00;1.00;0.60
69222;PMS7003;56514;51.816;-0.026;2023-04-03T13:53:11;2.00;2.00;1.60
69222;PMS7003;56514;51.816;-0.026;2023-04-03T13:56:00;1.00;1.00;1.00
69222;PMS7003;56514;51.816;-0.026;2023-04-03T14:07:21;1.60;1.60;1.00
69222;PMS7003;56514;51.816;-0.026;2023-04-03T14:10:08;1.00;1.00;1.00
69222;PMS7003;56514;51.816;-0.026;2023-04-03T14:12:54;0.00;0.00;0.00
69222;PMS7003;56514;51.816;-0.026;2023-04-03T14:15:40;1.80;1.80;1.80
69222;PMS7003;56514;51.816;-0.026;2023-04-03T14:18:25;2.00;2.00;1.75
69222;PMS7003;56514;51.816;-0.026;2023-04-03T14:21:12;2.40;2.40;2.00
69222;PMS7003;56514;51.816;-0.026;2023-04-03T14:23:59;2.00;2.00;2.00
69222;PMS7003;56514;51.816;-0.026;2023-04-03T14:26:45;2.80;2.80;2.00
69222;PMS7003;56514;51.816;-0.026;2023-04-03T14:29:30;2.20;2.20;2.20
69222;PMS7003;56514;51.816;-0.026;2023-04-03T14:32:15;2.00;2.00;2.00
69222;PMS7003;56514;51.816;-0.026;2023-04-03T14:35:02;2.00;2.00;2.00
69222;PMS7003;56514;51.816;-0.026;2023-04-03T14:37:48;2.60;2.60;2.60
69222;PMS7003;56514;51.816;-0.026;2023-04-03T14:40:33;1.20;1.20;1.00
69222;PMS7003;56514;51.816;-0.026;2023-04-03T14:43:18;1.60;1.60;1.60
69222;PMS7003;56514;51.816;-0.026;2023-04-03T14:46:04;2.00;2.00;1.40
69222;PMS7003;56514;51.816;-0.026;2023-04-03T14:48:55;2.00;2.00;2.00
69222;PMS7003;56514;51.816;-0.026;2023-04-03T14:51:40;1.80;1.80;1.80
69222;PMS7003;56514;51.816;-0.026;2023-04-03T14:54:28;2.40;2.40;2.00
69222;PMS7003;56514;51.816;-0.026;2023-04-03T14:57:14;2.20;2.20;2.20
69222;PMS7003;56514;51.816;-0.026;2023-04-03T15:00:04;2.00;2.00;2.00
69222;PMS7003;56514;51.816;-0.026;2023-04-03T15:02:50;2.00;2.00;2.00
69222;PMS7003;56514;51.816;-0.026;2023-04-03T15:05:38;2.00;2.00;2.00
69222;PMS7003;56514;51.816;-0.026;2023-04-03T15:08:24;1.00;1.00;1.00
69222;PMS7003;56514;51.816;-0.026;2023-04-03T15:11:14;3.00;3.00;3.00
69222;PMS7003;56514;51.816;-0.026;2023-04-03T15:14:00;3.00;3.00;2.00
69222;PMS7003;56514;51.816;-0.026;2023-04-03T15:16:45;2.60;2.60;2.60
69222;PMS7003;56514;51.816;-0.026;2023-04-03T15:19:31;2.25;2.25;2.00
69222;PMS7003;56514;51.816;-0.026;2023-04-03T15:22:22;2.25;2.25;2.00
69222;PMS7003;56514;51.816;-0.026;2023-04-03T15:25:07;2.00;2.00;1.75
69222;PMS7003;56514;51.816;-0.026;2023-04-03T15:27:53;1.80;1.80;1.80
69222;PMS7003;56514;51.816;-0.026;2023-04-03T15:30:40;2.75;2.75;2.75
69222;PMS7003;56514;51.816;-0.026;2023-04-03T15:33:25;2.00;2.00;2.00
69222;PMS7003;56514;51.816;-0.026;2023-04-03T15:36:10;2.00;2.00;1.80
69222;PMS7003;56514;51.816;-0.026;2023-04-03T15:38:56;2.00;2.00;1.40
69222;PMS7003;56514;51.816;-0.026;2023-04-03T15:41:41;3.00;3.00;2.80
69222;PMS7003;56514;51.816;-0.026;2023-04-03T15:44:26;3.00;2.00;2.00
69222;PMS7003;56514;51.816;-0.026;2023-04-03T15:47:12;1.80;1.80;1.80
69222;PMS7003;56514;51.816;-0.026;2023-04-03T15:49:57;2.00;2.00;2.00
69222;PMS7003;56514;51.816;-0.026;2023-04-03T15:52:42;1.80;1.80;1.20
69222;PMS7003;56514;51.816;-0.026;2023-04-03T15:55:28;1.00;1.00;1.00
69222;PMS7003;56514;51.816;-0.026;2023-04-03T15:58:15;1.00;1.00;1.00
69222;PMS7003;56514;51.816;-0.026;2023-04-03T16:01:00;1.80;1.80;1.80
69222;PMS7003;56514;51.816;-0.026;2023-04-03T16:03:48;2.00;2.00;2.00
69222;PMS7003;56514;51.816;-0.026;2023-04-03T16:06:34;2.00;2.00;2.00
69222;PMS7003;56514;51.816;-0.026;2023-04-03T16:09:19;2.00;2.00;1.80
69222;PMS7003;56514;51.816;-0.026;2023-04-03T16:12:04;2.00;2.00;2.00
69222;PMS7003;56514;51.816;-0.026;2023-04-03T16:14:49;1.00;1.00;1.00
69222;PMS7003;56514;51.816;-0.026;2023-04-03T16:17:34;1.00;1.00;1.00
69222;PMS7003;56514;51.816;-0.026;2023-04-03T16:20:21;1.25;1.25;1.00
69222;PMS7003;56514;51.816;-0.026;2023-04-03T16:23:07;1.40;1.40;1.40
69222;PMS7003;56514;51.816;-0.026;2023-04-03T16:25:55;2.00;2.00;1.00
69222;PMS7003;56514;51.816;-0.026;2023-04-03T16:28:40;1.80;1.80;1.00
69222;PMS7003;56514;51.816;-0.026;2023-04-03T16:31:45;1.00;1.00;1.00
69222;PMS7003;56514;51.816;-0.026;2023-04-03T16:34:30;2.80;2.80;2.00
69222;PMS7003;56514;51.816;-0.026;2023-04-03T16:37:17;1.60;1.60;1.60
69222;PMS7003;56514;51.816;-0.026;2023-04-03T16:40:03;2.00;2.00;1.60
69222;PMS7003;56514;51.816;-0.026;2023-04-03T16:42:49;1.20;1.20;1.00
69222;PMS7003;56514;51.816;-0.026;2023-04-03T16:45:34;2.00;2.00;2.00
69222;PMS7003;56514;51.816;-0.026;2023-04-03T16:48:19;1.00;1.00;1.00
69222;PMS7003;56514;51.816;-0.026;2023-04-03T16:51:04;1.75;1.75;1.00
69222;PMS7003;56514;51.816;-0.026;2023-04-03T16:53:49;2.00;2.00;2.00
69222;PMS7003;56514;51.816;-0.026;2023-04-03T16:56:34;2.00;2.00;2.00
69222;PMS7003;56514;51.816;-0.026;2023-04-03T16:59:20;1.00;1.00;1.00
69222;PMS7003;56514;51.816;-0.026;2023-04-03T17:02:04;3.40;2.20;1.60
69222;PMS7003;56514;51.816;-0.026;2023-04-03T17:04:50;1.20;1.20;1.00
69222;PMS7003;56514;51.816;-0.026;2023-04-03T17:07:37;1.00;1.00;1.00
69222;PMS7003;56514;51.816;-0.026;2023-04-03T17:10:22;0.00;0.00;0.00
69222;PMS7003;56514;51.816;-0.026;2023-04-03T17:13:08;1.00;1.00;1.00
69222;PMS7003;56514;51.816;-0.026;2023-04-03T17:15:53;1.00;1.00;0.50
69222;PMS7003;56514;51.816;-0.026;2023-04-03T17:18:37;1.40;1.40;1.00
69222;PMS7003;56514;51.816;-0.026;2023-04-03T17:21:23;0.00;0.00;0.00
69222;PMS7003;56514;51.816;-0.026;2023-04-03T17:24:08;0.40;0.40;0.40
69222;PMS7003;56514;51.816;-0.026;2023-04-03T17:26:56;0.00;0.00;0.00
69222;PMS7003;56514;51.816;-0.026;2023-04-03T17:29:41;1.00;1.00;1.00
69222;PMS7003;56514;51.816;-0.026;2023-04-03T17:32:26;0.40;0.40;0.40
69222;PMS7003;56514;51.816;-0.026;2023-04-03T17:35:11;0.75;0.75;0.00
69222;PMS7003;56514;51.816;-0.026;2023-04-03T17:37:56;1.25;1.25;1.25
69222;PMS7003;56514;51.816;-0.026;2023-04-03T17:40:42;1.00;1.00;1.00
69222;PMS7003;56514;51.816;-0.026;2023-04-03T17:43:28;1.50;1.50;1.25
69222;PMS7003;56514;51.816;-0.026;2023-04-03T17:46:13;0.25;0.25;0.25
69222;PMS7003;56514;51.816;-0.026;2023-04-03T17:49:04;0.00;0.00;0.00
69222;PMS7003;56514;51.816;-0.026;2023-04-03T17:51:49;0.00;0.00;0.00
69222;PMS7003;56514;51.816;-0.026;2023-04-03T17:54:34;0.00;0.00;0.00
69222;PMS7003;56514;51.816;-0.026;2023-04-03T17:57:19;1.00;0.00;0.00
69222;PMS7003;56514;51.816;-0.026;2023-04-03T18:00:04;0.00;0.00;0.00
69222;PMS7003;56514;51.816;-0.026;2023-04-03T18:02:53;0.00;0.00;0.00